sensor_id;sensor_type;location;lat;lon;timestamp;temperature;humidity
52799;DHT22;38667;42.872;74.622;2022-08-03T00:01:50;23.90;51.40
52799;DHT22;38667;42.872;74.622;2022-08-03T00:04:17;23.90;51.30
52799;DHT22;38667;42.872;74.622;2022-08-03T00:06:43;23.90;50.90
52799;DHT22;38667;42.872;74.622;2022-08-03T00:09:10;24.00;51.00
52799;DHT22;38667;42.872;74.622;2022-08-03T00:11:36;24.00;50.90
52799;DHT22;38667;42.872;74.622;2022-08-03T00:14:03;24.00;51.40
52799;DHT22;38667;42.872;74.622;2022-08-03T00:16:31;24.00;51.40
52799;DHT22;38667;42.872;74.622;2022-08-03T00:18:57;23.90;51.70
52799;DHT22;38667;42.872;74.622;2022-08-03T00:21:23;23.70;52.10
52799;DHT22;38667;42.872;74.622;2022-08-03T00:23:50;23.50;53.90
52799;DHT22;38667;42.872;74.622;2022-08-03T00:26:16;23.20;54.90
52799;DHT22;38667;42.872;74.622;2022-08-03T00:28:42;23.00;53.90
52799;DHT22;38667;42.872;74.622;2022-08-03T00:31:09;22.90;55.20
52799;DHT22;38667;42.872;74.622;2022-08-03T00:33:36;22.90;55.60
52799;DHT22;38667;42.872;74.622;2022-08-03T00:36:03;22.70;55.40
52799;DHT22;38667;42.872;74.622;2022-08-03T00:38:29;22.70;54.70
52799;DHT22;38667;42.872;74.622;2022-08-03T00:40:55;22.70;54.30
52799;DHT22;38667;42.872;74.622;2022-08-03T00:43:24;22.80;55.20
52799;DHT22;38667;42.872;74.622;2022-08-03T00:45:51;22.70;55.00
52799;DHT22;38667;42.872;74.622;2022-08-03T00:48:17;22.70;55.70
52799;DHT22;38667;42.872;74.622;2022-08-03T00:50:45;22.80;56.80
52799;DHT22;38667;42.872;74.622;2022-08-03T00:53:11;23.00;56.90
52799;DHT22;38667;42.872;74.622;2022-08-03T00:55:38;23.10;55.70
52799;DHT22;38667;42.872;74.622;2022-08-03T00:58:06;23.10;55.60
52799;DHT22;38667;42.872;74.622;2022-08-03T01:00:33;23.10;55.40
52799;DHT22;38667;42.872;74.622;2022-08-03T01:03:00;23.10;55.80
52799;DHT22;38667;42.872;74.622;2022-08-03T01:05:27;23.00;56.00
52799;DHT22;38667;42.872;74.622;2022-08-03T01:08:04;23.00;55.90
52799;DHT22;38667;42.872;74.622;2022-08-03T01:10:38;23.00;56.00
52799;DHT22;38667;42.872;74.622;2022-08-03T01:13:14;23.00;55.50
52799;DHT22;38667;42.872;74.622;2022-08-03T01:15:47;23.00;55.40
52799;DHT22;38667;42.872;74.622;2022-08-03T01:18:19;23.00;56.20
52799;DHT22;38667;42.872;74.622;2022-08-03T01:20:48;23.00;56.30
52799;DHT22;38667;42.872;74.622;2022-08-03T01:23:39;23.00;56.50
52799;DHT22;38667;42.872;74.622;2022-08-03T01:29:19;23.00;56.90
52799;DHT22;38667;42.872;74.622;2022-08-03T01:31:54;23.00;55.80
52799;DHT22;38667;42.872;74.622;2022-08-03T01:34:25;22.80;55.70
52799;DHT22;38667;42.872;74.622;2022-08-03T01:36:52;22.60;57.50
52799;DHT22;38667;42.872;74.622;2022-08-03T01:39:22;22.40;57.80
52799;DHT22;38667;42.872;74.622;2022-08-03T01:41:54;22.30;58.10
52799;DHT22;38667;42.872;74.622;2022-08-03T01:44:22;22.20;59.80
52799;DHT22;38667;42.872;74.622;2022-08-03T01:46:50;22.10;59.40
52799;DHT22;38667;42.872;74.622;2022-08-03T01:49:17;22.20;57.60
52799;DHT22;38667;42.872;74.622;2022-08-03T01:51:46;22.20;56.90
52799;DHT22;38667;42.872;74.622;2022-08-03T01:54:14;22.30;59.20
52799;DHT22;38667;42.872;74.622;2022-08-03T01:56:42;22.30;58.00
52799;DHT22;38667;42.872;74.622;2022-08-03T01:59:10;22.30;56.00
52799;DHT22;38667;42.872;74.622;2022-08-03T02:01:38;22.50;56.60
52799;DHT22;38667;42.872;74.622;2022-08-03T02:04:07;22.80;56.10
52799;DHT22;38667;42.872;74.622;2022-08-03T02:06:35;23.00;56.30
52799;DHT22;38667;42.872;74.622;2022-08-03T02:09:03;23.00;55.10
52799;DHT22;38667;42.872;74.622;2022-08-03T02:11:31;23.00;54.90
52799;DHT22;38667;42.872;74.622;2022-08-03T02:14:01;23.20;54.10
52799;DHT22;38667;42.872;74.622;2022-08-03T02:16:30;23.30;54.20
52799;DHT22;38667;42.872;74.622;2022-08-03T02:18:58;23.40;54.00
52799;DHT22;38667;42.872;74.622;2022-08-03T02:21:28;23.40;54.20
52799;DHT22;38667;42.872;74.622;2022-08-03T02:23:55;23.60;54.50
52799;DHT22;38667;42.872;74.622;2022-08-03T02:26:23;23.70;54.30
52799;DHT22;38667;42.872;74.622;2022-08-03T02:28:55;23.70;54.80
52799;DHT22;38667;42.872;74.622;2022-08-03T02:31:28;23.80;52.20
52799;DHT22;38667;42.872;74.622;2022-08-03T02:33:59;23.80;53.10
52799;DHT22;38667;42.872;74.622;2022-08-03T02:36:29;23.80;53.40
52799;DHT22;38667;42.872;74.622;2022-08-03T02:38:58;23.70;52.90
52799;DHT22;38667;42.872;74.622;2022-08-03T02:41:29;23.60;52.40
52799;DHT22;38667;42.872;74.622;2022-08-03T02:43:59;23.40;52.90
52799;DHT22;38667;42.872;74.622;2022-08-03T02:46:30;23.40;53.90
52799;DHT22;38667;42.872;74.622;2022-08-03T02:48:57;23.40;53.90
52799;DHT22;38667;42.872;74.622;2022-08-03T02:51:24;23.40;53.70
52799;DHT22;38667;42.872;74.622;2022-08-03T02:53:59;23.50;53.70
52799;DHT22;38667;42.872;74.622;2022-08-03T02:56:27;23.50;52.60
52799;DHT22;38667;42.872;74.622;2022-08-03T02:58:56;23.50;53.10
52799;DHT22;38667;42.872;74.622;2022-08-03T03:01:25;23.50;51.60
52799;DHT22;38667;42.872;74.622;2022-08-03T03:03:54;23.50;51.20
52799;DHT22;38667;42.872;74.622;2022-08-03T03:06:22;23.60;51.30
52799;DHT22;38667;42.872;74.622;2022-08-03T03:08:49;23.60;51.40
52799;DHT22;38667;42.872;74.622;2022-08-03T03:11:19;23.70;51.70
52799;DHT22;38667;42.872;74.622;2022-08-03T03:13:46;23.70;51.70
52799;DHT22;38667;42.872;74.622;2022-08-03T03:16:15;23.70;51.90
52799;DHT22;38667;42.872;74.622;2022-08-03T03:18:43;23.70;51.80
52799;DHT22;38667;42.872;74.622;2022-08-03T03:21:10;23.70;51.10
52799;DHT22;38667;42.872;74.622;2022-08-03T03:23:39;23.70;51.30
52799;DHT22;38667;42.872;74.622;2022-08-03T03:26:06;23.80;51.10
52799;DHT22;38667;42.872;74.622;2022-08-03T03:28:35;23.90;51.80
52799;DHT22;38667;42.872;74.622;2022-08-03T03:31:02;23.90;52.40
52799;DHT22;38667;42.872;74.622;2022-08-03T03:33:29;23.90;51.80
52799;DHT22;38667;42.872;74.622;2022-08-03T03:35:56;23.90;50.50
52799;DHT22;38667;42.872;74.622;2022-08-03T03:38:22;23.90;51.60
52799;DHT22;38667;42.872;74.622;2022-08-03T03:40:49;23.90;50.90
52799;DHT22;38667;42.872;74.622;2022-08-03T03:43:15;24.40;49.60
52799;DHT22;38667;42.872;74.622;2022-08-03T03:45:43;24.60;50.60
52799;DHT22;38667;42.872;74.622;2022-08-03T03:48:10;24.80;48.50
52799;DHT22;38667;42.872;74.622;2022-08-03T03:50:36;24.80;48.50
52799;DHT22;38667;42.872;74.622;2022-08-03T03:53:03;24.80;48.80
52799;DHT22;38667;42.872;74.622;2022-08-03T03:55:30;24.80;48.40
52799;DHT22;38667;42.872;74.622;2022-08-03T03:57:56;24.80;48.80
52799;DHT22;38667;42.872;74.622;2022-08-03T04:00:22;25.00;47.70
52799;DHT22;38667;42.872;74.622;2022-08-03T04:02:50;24.90;47.60
52799;DHT22;38667;42.872;74.622;2022-08-03T04:05:16;25.00;47.30
52799;DHT22;38667;42.872;74.622;2022-08-03T04:07:48;24.90;48.00
52799;DHT22;38667;42.872;74.622;2022-08-03T04:10:21;24.80;48.20
52799;DHT22;38667;42.872;74.622;2022-08-03T04:12:48;24.80;48.80
52799;DHT22;38667;42.872;74.622;2022-08-03T04:15:16;24.90;49.10
52799;DHT22;38667;42.872;74.622;2022-08-03T04:17:44;24.90;49.70
52799;DHT22;38667;42.872;74.622;2022-08-03T04:20:13;24.90;48.80
52799;DHT22;38667;42.872;74.622;2022-08-03T04:22:40;24.80;49.20
52799;DHT22;38667;42.872;74.622;2022-08-03T04:25:08;24.90;49.20
52799;DHT22;38667;42.872;74.622;2022-08-03T04:27:38;25.00;48.40
52799;DHT22;38667;42.872;74.622;2022-08-03T04:30:06;25.10;47.50
52799;DHT22;38667;42.872;74.622;2022-08-03T04:32:35;25.20;48.10
52799;DHT22;38667;42.872;74.622;2022-08-03T04:35:02;25.20;48.70
52799;DHT22;38667;42.872;74.622;2022-08-03T04:37:36;25.00;49.00
52799;DHT22;38667;42.872;74.622;2022-08-03T04:40:06;24.90;48.90
52799;DHT22;38667;42.872;74.622;2022-08-03T04:42:34;25.10;49.80
52799;DHT22;38667;42.872;74.622;2022-08-03T04:45:01;24.90;50.00
52799;DHT22;38667;42.872;74.622;2022-08-03T04:47:29;24.90;50.60
52799;DHT22;38667;42.872;74.622;2022-08-03T04:49:57;25.00;49.60
52799;DHT22;38667;42.872;74.622;2022-08-03T04:52:24;25.10;48.00
52799;DHT22;38667;42.872;74.622;2022-08-03T04:54:52;25.20;48.40
52799;DHT22;38667;42.872;74.622;2022-08-03T04:57:18;25.20;48.90
52799;DHT22;38667;42.872;74.622;2022-08-03T04:59:44;25.20;48.50
52799;DHT22;38667;42.872;74.622;2022-08-03T05:02:11;25.30;48.00
52799;DHT22;38667;42.872;74.622;2022-08-03T05:04:37;25.30;48.30
52799;DHT22;38667;42.872;74.622;2022-08-03T05:07:03;25.30;48.10
52799;DHT22;38667;42.872;74.622;2022-08-03T05:09:29;25.30;47.20
52799;DHT22;38667;42.872;74.622;2022-08-03T05:11:57;25.40;47.60
52799;DHT22;38667;42.872;74.622;2022-08-03T05:14:23;25.40;47.40
52799;DHT22;38667;42.872;74.622;2022-08-03T05:16:50;25.40;48.60
52799;DHT22;38667;42.872;74.622;2022-08-03T05:19:16;25.30;48.80
52799;DHT22;38667;42.872;74.622;2022-08-03T05:21:43;25.30;47.20
52799;DHT22;38667;42.872;74.622;2022-08-03T05:24:09;25.10;48.40
52799;DHT22;38667;42.872;74.622;2022-08-03T05:26:35;25.30;48.30
52799;DHT22;38667;42.872;74.622;2022-08-03T05:29:04;25.50;49.00
52799;DHT22;38667;42.872;74.622;2022-08-03T05:31:30;25.60;49.00
52799;DHT22;38667;42.872;74.622;2022-08-03T05:33:56;25.60;47.70
52799;DHT22;38667;42.872;74.622;2022-08-03T05:36:23;25.70;48.00
52799;DHT22;38667;42.872;74.622;2022-08-03T05:38:49;25.70;47.30
52799;DHT22;38667;42.872;74.622;2022-08-03T05:41:15;25.70;47.80
52799;DHT22;38667;42.872;74.622;2022-08-03T05:43:42;25.80;46.10
52799;DHT22;38667;42.872;74.622;2022-08-03T05:46:09;25.90;45.80
52799;DHT22;38667;42.872;74.622;2022-08-03T05:48:36;25.90;46.40
52799;DHT22;38667;42.872;74.622;2022-08-03T05:51:02;26.00;47.10
52799;DHT22;38667;42.872;74.622;2022-08-03T05:53:32;26.00;47.90
52799;DHT22;38667;42.872;74.622;2022-08-03T05:55:58;26.30;47.60
52799;DHT22;38667;42.872;74.622;2022-08-03T05:58:25;26.60;47.20
52799;DHT22;38667;42.872;74.622;2022-08-03T06:00:51;26.80;45.80
52799;DHT22;38667;42.872;74.622;2022-08-03T06:03:19;27.00;46.30
52799;DHT22;38667;42.872;74.622;2022-08-03T06:05:45;27.60;45.20
52799;DHT22;38667;42.872;74.622;2022-08-03T06:08:12;28.10;43.90
52799;DHT22;38667;42.872;74.622;2022-08-03T06:10:38;28.10;43.60
52799;DHT22;38667;42.872;74.622;2022-08-03T06:13:05;28.40;43.70
52799;DHT22;38667;42.872;74.622;2022-08-03T06:15:31;28.60;42.80
52799;DHT22;38667;42.872;74.622;2022-08-03T06:17:57;28.90;42.70
52799;DHT22;38667;42.872;74.622;2022-08-03T06:20:25;29.00;43.00
52799;DHT22;38667;42.872;74.622;2022-08-03T06:22:52;28.80;42.90
52799;DHT22;38667;42.872;74.622;2022-08-03T06:25:18;28.00;43.80
52799;DHT22;38667;42.872;74.622;2022-08-03T06:27:45;27.70;45.80
52799;DHT22;38667;42.872;74.622;2022-08-03T06:30:12;27.40;45.10
52799;DHT22;38667;42.872;74.622;2022-08-03T06:32:38;27.20;46.10
52799;DHT22;38667;42.872;74.622;2022-08-03T06:35:05;27.10;46.10
52799;DHT22;38667;42.872;74.622;2022-08-03T06:37:41;27.00;45.70
52799;DHT22;38667;42.872;74.622;2022-08-03T06:40:08;27.00;46.40
52799;DHT22;38667;42.872;74.622;2022-08-03T06:42:35;27.00;47.20
52799;DHT22;38667;42.872;74.622;2022-08-03T06:45:01;26.90;45.70
52799;DHT22;38667;42.872;74.622;2022-08-03T06:47:27;26.80;45.70
52799;DHT22;38667;42.872;74.622;2022-08-03T06:49:54;26.60;47.20
52799;DHT22;38667;42.872;74.622;2022-08-03T06:52:20;26.60;47.10
52799;DHT22;38667;42.872;74.622;2022-08-03T06:54:48;26.80;46.10
52799;DHT22;38667;42.872;74.622;2022-08-03T06:57:14;26.80;46.20
52799;DHT22;38667;42.872;74.622;2022-08-03T06:59:40;26.90;46.10
52799;DHT22;38667;42.872;74.622;2022-08-03T07:02:06;27.00;47.80
52799;DHT22;38667;42.872;74.622;2022-08-03T07:04:33;27.00;46.00
52799;DHT22;38667;42.872;74.622;2022-08-03T07:06:59;26.70;46.70
52799;DHT22;38667;42.872;74.622;2022-08-03T07:09:25;26.80;48.40
52799;DHT22;38667;42.872;74.622;2022-08-03T07:11:53;27.00;47.80
52799;DHT22;38667;42.872;74.622;2022-08-03T07:14:20;26.90;46.40
52799;DHT22;38667;42.872;74.622;2022-08-03T07:16:46;27.00;47.50
52799;DHT22;38667;42.872;74.622;2022-08-03T07:19:13;27.00;46.30
52799;DHT22;38667;42.872;74.622;2022-08-03T07:21:39;26.90;45.80
52799;DHT22;38667;42.872;74.622;2022-08-03T07:24:05;26.90;46.40
52799;DHT22;38667;42.872;74.622;2022-08-03T07:26:32;27.00;46.30
52799;DHT22;38667;42.872;74.622;2022-08-03T07:29:00;27.20;45.20
52799;DHT22;38667;42.872;74.622;2022-08-03T07:31:26;27.20;45.50
52799;DHT22;38667;42.872;74.622;2022-08-03T07:33:52;27.30;46.00
52799;DHT22;38667;42.872;74.622;2022-08-03T07:36:19;27.30;46.30
52799;DHT22;38667;42.872;74.622;2022-08-03T07:38:45;27.10;46.40
52799;DHT22;38667;42.872;74.622;2022-08-03T07:41:11;27.20;46.40
52799;DHT22;38667;42.872;74.622;2022-08-03T07:43:38;27.10;46.70
52799;DHT22;38667;42.872;74.622;2022-08-03T07:46:05;27.00;47.50
52799;DHT22;38667;42.872;74.622;2022-08-03T07:48:32;26.80;46.90
52799;DHT22;38667;42.872;74.622;2022-08-03T07:50:58;27.00;49.00
52799;DHT22;38667;42.872;74.622;2022-08-03T07:53:25;27.20;47.10
52799;DHT22;38667;42.872;74.622;2022-08-03T07:55:51;27.20;48.80
52799;DHT22;38667;42.872;74.622;2022-08-03T07:58:17;27.40;47.50
52799;DHT22;38667;42.872;74.622;2022-08-03T08:00:44;27.30;47.20
52799;DHT22;38667;42.872;74.622;2022-08-03T08:03:11;27.00;47.20
52799;DHT22;38667;42.872;74.622;2022-08-03T08:05:38;27.10;46.80
52799;DHT22;38667;42.872;74.622;2022-08-03T08:08:04;27.20;46.70
52799;DHT22;38667;42.872;74.622;2022-08-03T08:10:31;27.40;45.50
52799;DHT22;38667;42.872;74.622;2022-08-03T08:12:58;27.40;46.60
52799;DHT22;38667;42.872;74.622;2022-08-03T08:15:25;27.70;45.80
52799;DHT22;38667;42.872;74.622;2022-08-03T08:17:52;28.40;44.30
52799;DHT22;38667;42.872;74.622;2022-08-03T08:20:22;29.10;42.20
52799;DHT22;38667;42.872;74.622;2022-08-03T08:22:49;29.50;41.60
52799;DHT22;38667;42.872;74.622;2022-08-03T08:25:15;28.70;42.90
52799;DHT22;38667;42.872;74.622;2022-08-03T08:27:43;28.40;44.10
52799;DHT22;38667;42.872;74.622;2022-08-03T08:30:11;27.80;45.20
52799;DHT22;38667;42.872;74.622;2022-08-03T08:32:38;27.70;45.00
52799;DHT22;38667;42.872;74.622;2022-08-03T08:35:05;27.60;44.60
52799;DHT22;38667;42.872;74.622;2022-08-03T08:37:33;27.70;45.70
52799;DHT22;38667;42.872;74.622;2022-08-03T08:40:00;27.70;45.80
52799;DHT22;38667;42.872;74.622;2022-08-03T08:42:26;27.70;44.60
52799;DHT22;38667;42.872;74.622;2022-08-03T08:44:53;27.60;45.00
52799;DHT22;38667;42.872;74.622;2022-08-03T08:47:23;27.70;45.50
52799;DHT22;38667;42.872;74.622;2022-08-03T08:49:52;27.70;45.70
52799;DHT22;38667;42.872;74.622;2022-08-03T08:52:25;27.60;45.90
52799;DHT22;38667;42.872;74.622;2022-08-03T08:54:55;27.80;45.20
52799;DHT22;38667;42.872;74.622;2022-08-03T08:57:27;27.90;44.20
52799;DHT22;38667;42.872;74.622;2022-08-03T08:59:54;27.60;45.50
52799;DHT22;38667;42.872;74.622;2022-08-03T09:02:21;27.60;46.00
52799;DHT22;38667;42.872;74.622;2022-08-03T09:04:47;27.50;45.00
52799;DHT22;38667;42.872;74.622;2022-08-03T09:07:14;27.50;46.00
52799;DHT22;38667;42.872;74.622;2022-08-03T09:09:40;27.60;45.30
52799;DHT22;38667;42.872;74.622;2022-08-03T09:12:08;27.70;44.60
52799;DHT22;38667;42.872;74.622;2022-08-03T09:14:35;27.80;44.70
52799;DHT22;38667;42.872;74.622;2022-08-03T09:17:02;27.80;46.10
52799;DHT22;38667;42.872;74.622;2022-08-03T09:19:29;27.90;45.20
52799;DHT22;38667;42.872;74.622;2022-08-03T09:22:10;27.90;44.40
52799;DHT22;38667;42.872;74.622;2022-08-03T09:24:37;27.90;45.30
52799;DHT22;38667;42.872;74.622;2022-08-03T09:27:07;27.90;45.00
52799;DHT22;38667;42.872;74.622;2022-08-03T09:29:36;27.90;45.00
52799;DHT22;38667;42.872;74.622;2022-08-03T09:32:04;28.00;44.60
52799;DHT22;38667;42.872;74.622;2022-08-03T09:34:30;28.00;45.80
52799;DHT22;38667;42.872;74.622;2022-08-03T09:36:57;27.90;44.90
52799;DHT22;38667;42.872;74.622;2022-08-03T09:39:24;28.00;45.20
52799;DHT22;38667;42.872;74.622;2022-08-03T09:42:04;28.20;44.50
52799;DHT22;38667;42.872;74.622;2022-08-03T09:44:35;28.40;44.60
52799;DHT22;38667;42.872;74.622;2022-08-03T09:47:02;29.10;43.90
52799;DHT22;38667;42.872;74.622;2022-08-03T09:49:29;29.10;43.70
52799;DHT22;38667;42.872;74.622;2022-08-03T09:51:55;28.40;45.40
52799;DHT22;38667;42.872;74.622;2022-08-03T09:54:29;28.00;44.60
52799;DHT22;38667;42.872;74.622;2022-08-03T09:56:56;27.50;46.70
52799;DHT22;38667;42.872;74.622;2022-08-03T09:59:24;28.30;43.90
52799;DHT22;38667;42.872;74.622;2022-08-03T10:01:52;29.10;42.30
52799;DHT22;38667;42.872;74.622;2022-08-03T10:04:19;28.30;43.70
52799;DHT22;38667;42.872;74.622;2022-08-03T10:07:01;27.80;44.20
52799;DHT22;38667;42.872;74.622;2022-08-03T10:09:28;27.60;45.40
52799;DHT22;38667;42.872;74.622;2022-08-03T10:11:54;27.70;44.60
52799;DHT22;38667;42.872;74.622;2022-08-03T10:14:20;27.80;45.10
52799;DHT22;38667;42.872;74.622;2022-08-03T11:45:55;27.40;45.30
52799;DHT22;38667;42.872;74.622;2022-08-03T11:48:22;27.30;45.20
52799;DHT22;38667;42.872;74.622;2022-08-03T11:50:51;27.30;45.00
52799;DHT22;38667;42.872;74.622;2022-08-03T11:53:18;27.30;45.00
52799;DHT22;38667;42.872;74.622;2022-08-03T11:55:44;27.20;45.90
52799;DHT22;38667;42.872;74.622;2022-08-03T11:58:15;27.20;47.50
52799;DHT22;38667;42.872;74.622;2022-08-03T12:00:43;27.10;46.40
52799;DHT22;38667;42.872;74.622;2022-08-03T12:03:11;27.00;46.90
52799;DHT22;38667;42.872;74.622;2022-08-03T12:05:46;27.00;46.60
52799;DHT22;38667;42.872;74.622;2022-08-03T12:08:14;26.90;46.10
52799;DHT22;38667;42.872;74.622;2022-08-03T12:10:47;27.00;46.30
52799;DHT22;38667;42.872;74.622;2022-08-03T12:13:14;27.00;46.70
52799;DHT22;38667;42.872;74.622;2022-08-03T12:15:42;26.90;46.00
52799;DHT22;38667;42.872;74.622;2022-08-03T12:18:16;26.90;46.30
52799;DHT22;38667;42.872;74.622;2022-08-03T12:20:43;26.80;45.60
52799;DHT22;38667;42.872;74.622;2022-08-03T12:23:10;26.80;45.70
52799;DHT22;38667;42.872;74.622;2022-08-03T12:25:38;26.80;45.90
52799;DHT22;38667;42.872;74.622;2022-08-03T12:28:10;26.80;46.10
52799;DHT22;38667;42.872;74.622;2022-08-03T12:30:38;26.90;47.20
52799;DHT22;38667;42.872;74.622;2022-08-03T12:33:14;27.00;46.80
52799;DHT22;38667;42.872;74.622;2022-08-03T12:35:41;27.00;46.80
52799;DHT22;38667;42.872;74.622;2022-08-03T12:38:07;26.80;46.40
52799;DHT22;38667;42.872;74.622;2022-08-03T12:40:35;26.80;46.60
52799;DHT22;38667;42.872;74.622;2022-08-03T12:43:10;26.80;46.80
52799;DHT22;38667;42.872;74.622;2022-08-03T12:45:36;26.80;46.10
52799;DHT22;38667;42.872;74.622;2022-08-03T12:48:03;27.00;46.90
52799;DHT22;38667;42.872;74.622;2022-08-03T12:50:35;26.90;46.50
52799;DHT22;38667;42.872;74.622;2022-08-03T12:53:03;26.80;46.40
52799;DHT22;38667;42.872;74.622;2022-08-03T12:55:30;26.80;47.00
52799;DHT22;38667;42.872;74.622;2022-08-03T12:57:57;26.70;47.60
52799;DHT22;38667;42.872;74.622;2022-08-03T13:00:23;26.60;50.60
52799;DHT22;38667;42.872;74.622;2022-08-03T13:02:59;26.20;52.00
52799;DHT22;38667;42.872;74.622;2022-08-03T13:05:25;25.90;53.50
52799;DHT22;38667;42.872;74.622;2022-08-03T13:07:53;25.60;55.50
52799;DHT22;38667;42.872;74.622;2022-08-03T13:10:28;25.40;58.30
52799;DHT22;38667;42.872;74.622;2022-08-03T13:12:54;24.90;61.10
52799;DHT22;38667;42.872;74.622;2022-08-03T13:15:20;24.40;64.60
52799;DHT22;38667;42.872;74.622;2022-08-03T13:17:47;24.10;67.40
52799;DHT22;38667;42.872;74.622;2022-08-03T13:20:13;23.90;66.90
52799;DHT22;38667;42.872;74.622;2022-08-03T13:22:39;23.80;67.20
52799;DHT22;38667;42.872;74.622;2022-08-03T13:25:07;23.90;68.10
52799;DHT22;38667;42.872;74.622;2022-08-03T13:27:34;23.90;67.00
52799;DHT22;38667;42.872;74.622;2022-08-03T13:30:00;24.00;66.00
52799;DHT22;38667;42.872;74.622;2022-08-03T13:32:26;24.00;64.50
52799;DHT22;38667;42.872;74.622;2022-08-03T13:34:53;24.10;64.50
52799;DHT22;38667;42.872;74.622;2022-08-03T13:37:19;24.30;63.40
52799;DHT22;38667;42.872;74.622;2022-08-03T13:39:45;24.40;62.10
52799;DHT22;38667;42.872;74.622;2022-08-03T13:42:13;24.40;61.50
52799;DHT22;38667;42.872;74.622;2022-08-03T13:44:39;24.50;60.70
52799;DHT22;38667;42.872;74.622;2022-08-03T13:47:06;24.50;60.00
52799;DHT22;38667;42.872;74.622;2022-08-03T13:49:32;24.50;59.70
52799;DHT22;38667;42.872;74.622;2022-08-03T13:51:58;24.40;58.80
52799;DHT22;38667;42.872;74.622;2022-08-03T13:54:25;24.40;58.40
52799;DHT22;38667;42.872;74.622;2022-08-03T13:56:51;24.50;58.30
52799;DHT22;38667;42.872;74.622;2022-08-03T13:59:19;24.60;57.80
52799;DHT22;38667;42.872;74.622;2022-08-03T14:01:46;24.80;57.80
52799;DHT22;38667;42.872;74.622;2022-08-03T14:04:12;25.00;57.30
52799;DHT22;38667;42.872;74.622;2022-08-03T14:06:39;25.10;57.20
52799;DHT22;38667;42.872;74.622;2022-08-03T14:09:05;25.30;56.60
52799;DHT22;38667;42.872;74.622;2022-08-03T14:11:32;25.40;55.40
52799;DHT22;38667;42.872;74.622;2022-08-03T14:13:58;25.40;54.80
52799;DHT22;38667;42.872;74.622;2022-08-03T14:16:26;25.40;53.70
52799;DHT22;38667;42.872;74.622;2022-08-03T14:18:52;25.20;53.60
52799;DHT22;38667;42.872;74.622;2022-08-03T14:21:19;25.10;53.80
52799;DHT22;38667;42.872;74.622;2022-08-03T14:23:45;25.00;54.30
52799;DHT22;38667;42.872;74.622;2022-08-03T14:26:11;25.00;54.50
52799;DHT22;38667;42.872;74.622;2022-08-03T14:28:37;25.00;54.20
52799;DHT22;38667;42.872;74.622;2022-08-03T14:31:04;25.10;54.20
52799;DHT22;38667;42.872;74.622;2022-08-03T14:33:32;25.20;54.20
52799;DHT22;38667;42.872;74.622;2022-08-03T14:35:58;25.20;53.90
52799;DHT22;38667;42.872;74.622;2022-08-03T14:38:24;25.30;53.20
52799;DHT22;38667;42.872;74.622;2022-08-03T14:40:51;25.40;53.00
52799;DHT22;38667;42.872;74.622;2022-08-03T14:43:17;25.40;53.20
52799;DHT22;38667;42.872;74.622;2022-08-03T14:45:43;25.40;52.80
52799;DHT22;38667;42.872;74.622;2022-08-03T14:48:10;25.50;52.90
52799;DHT22;38667;42.872;74.622;2022-08-03T14:50:37;25.50;52.80
52799;DHT22;38667;42.872;74.622;2022-08-03T14:53:04;25.50;53.50
52799;DHT22;38667;42.872;74.622;2022-08-03T14:55:30;25.40;53.20
52799;DHT22;38667;42.872;74.622;2022-08-03T14:57:56;25.40;52.20
52799;DHT22;38667;42.872;74.622;2022-08-03T15:00:23;25.40;52.00
52799;DHT22;38667;42.872;74.622;2022-08-03T15:02:49;25.40;52.00
52799;DHT22;38667;42.872;74.622;2022-08-03T15:05:15;25.30;52.20
52799;DHT22;38667;42.872;74.622;2022-08-03T15:07:43;25.40;52.00
52799;DHT22;38667;42.872;74.622;2022-08-03T15:10:09;25.30;52.00
52799;DHT22;38667;42.872;74.622;2022-08-03T15:12:35;25.50;51.60
52799;DHT22;38667;42.872;74.622;2022-08-03T15:15:02;25.50;51.80
52799;DHT22;38667;42.872;74.622;2022-08-03T15:17:28;25.50;52.20
52799;DHT22;38667;42.872;74.622;2022-08-03T15:19:54;25.40;52.60
52799;DHT22;38667;42.872;74.622;2022-08-03T15:22:21;25.40;53.00
52799;DHT22;38667;42.872;74.622;2022-08-03T15:24:49;25.40;53.10
52799;DHT22;38667;42.872;74.622;2022-08-03T15:27:15;25.40;53.30
52799;DHT22;38667;42.872;74.622;2022-08-03T15:29:41;25.40;54.30
52799;DHT22;38667;42.872;74.622;2022-08-03T15:32:07;25.40;53.80
52799;DHT22;38667;42.872;74.622;2022-08-03T15:34:34;25.30;53.90
52799;DHT22;38667;42.872;74.622;2022-08-03T15:37:00;25.30;54.20
52799;DHT22;38667;42.872;74.622;2022-08-03T15:39:26;25.30;54.50
52799;DHT22;38667;42.872;74.622;2022-08-03T15:41:54;25.30;54.70
52799;DHT22;38667;42.872;74.622;2022-08-03T15:44:20;25.20;54.70
52799;DHT22;38667;42.872;74.622;2022-08-03T15:46:47;25.10;55.20
52799;DHT22;38667;42.872;74.622;2022-08-03T15:49:13;25.10;54.80
52799;DHT22;38667;42.872;74.622;2022-08-03T15:51:39;25.00;55.20
52799;DHT22;38667;42.872;74.622;2022-08-03T15:54:06;25.20;54.40
52799;DHT22;38667;42.872;74.622;2022-08-03T15:56:32;25.50;54.60
52799;DHT22;38667;42.872;74.622;2022-08-03T15:59:00;25.40;55.40
52799;DHT22;38667;42.872;74.622;2022-08-03T16:01:27;25.40;54.40
52799;DHT22;38667;42.872;74.622;2022-08-03T16:03:53;25.50;54.10
52799;DHT22;38667;42.872;74.622;2022-08-03T16:06:19;25.50;54.90
52799;DHT22;38667;42.872;74.622;2022-08-03T16:08:46;25.40;54.70
52799;DHT22;38667;42.872;74.622;2022-08-03T16:11:13;25.30;55.20
52799;DHT22;38667;42.872;74.622;2022-08-03T16:13:39;25.20;56.10
52799;DHT22;38667;42.872;74.622;2022-08-03T16:16:07;25.00;56.60
52799;DHT22;38667;42.872;74.622;2022-08-03T16:18:33;24.90;56.90
52799;DHT22;38667;42.872;74.622;2022-08-03T16:20:59;24.90;56.50
52799;DHT22;38667;42.872;74.622;2022-08-03T16:23:26;24.90;57.10
52799;DHT22;38667;42.872;74.622;2022-08-03T16:25:52;25.00;56.30
52799;DHT22;38667;42.872;74.622;2022-08-03T16:28:18;25.10;56.90
52799;DHT22;38667;42.872;74.622;2022-08-03T16:30:45;24.80;57.30
52799;DHT22;38667;42.872;74.622;2022-08-03T16:33:14;24.60;58.20
52799;DHT22;38667;42.872;74.622;2022-08-03T16:35:40;24.60;58.30
52799;DHT22;38667;42.872;74.622;2022-08-03T16:38:07;24.60;58.20
52799;DHT22;38667;42.872;74.622;2022-08-03T16:40:33;24.60;58.50
52799;DHT22;38667;42.872;74.622;2022-08-03T16:42:59;24.60;58.30
52799;DHT22;38667;42.872;74.622;2022-08-03T16:45:26;24.60;58.50
52799;DHT22;38667;42.872;74.622;2022-08-03T16:47:52;24.60;59.00
52799;DHT22;38667;42.872;74.622;2022-08-03T16:50:20;24.60;59.20